createdAt,value
2023-06-23T00:02:15.466Z,4.50
2023-06-23T00:04:44.465Z,4.30
2023-06-23T00:07:13.257Z,4.60
2023-06-23T00:09:42.148Z,4.60
2023-06-23T00:12:11.212Z,4.70
2023-06-23T00:14:39.807Z,4.50
2023-06-23T00:17:08.927Z,4.70
2023-06-23T00:19:37.599Z,4.40
2023-06-23T00:22:06.911Z,3.80
2023-06-23T00:24:36.009Z,4.50
2023-06-23T00:27:05.195Z,4.60
2023-06-23T00:29:34.187Z,4.60
2023-06-23T00:32:03.980Z,4.20
2023-06-23T00:34:32.692Z,4.60
2023-06-23T00:37:01.789Z,4.40
2023-06-23T00:39:30.886Z,4.90
2023-06-23T00:42:04.074Z,4.50
2023-06-23T00:44:34.868Z,4.60
2023-06-23T00:47:05.947Z,5.10
2023-06-23T00:49:37.408Z,4.50
2023-06-23T00:52:08.835Z,5.30
2023-06-23T00:54:38.136Z,5.40
2023-06-23T00:57:08.699Z,5.30
2023-06-23T00:59:38.499Z,4.90
2023-06-23T01:02:07.836Z,4.70
2023-06-23T01:04:37.401Z,4.90
2023-06-23T01:07:44.719Z,4.70
2023-06-23T01:10:50.116Z,5.30
2023-06-23T01:14:01.205Z,5.10
2023-06-23T01:16:34.301Z,4.80
2023-06-23T01:19:40.788Z,5.10
2023-06-23T01:22:27.688Z,5.00
2023-06-23T01:25:11.819Z,5.20
2023-06-23T01:28:20.043Z,5.10
2023-06-23T01:30:55.032Z,5.90
2023-06-23T01:33:28.801Z,5.60
2023-06-23T01:36:08.442Z,5.90
2023-06-23T01:38:42.133Z,5.50
2023-06-23T01:41:18.455Z,5.70
2023-06-23T01:43:50.408Z,5.80
2023-06-23T01:46:27.669Z,5.90
2023-06-23T01:49:00.232Z,6.40
2023-06-23T01:51:30.870Z,5.90
2023-06-23T01:54:00.766Z,6.30
2023-06-23T01:56:30.271Z,6.00
2023-06-23T01:59:00.093Z,5.50
2023-06-23T02:01:31.341Z,6.90
2023-06-23T02:04:03.985Z,5.50
2023-06-23T02:06:36.387Z,4.10
2023-06-23T02:09:10.991Z,3.30
2023-06-23T02:11:41.048Z,3.00
2023-06-23T02:14:10.944Z,3.50
2023-06-23T02:16:40.950Z,3.20
2023-06-23T02:19:10.958Z,3.40
2023-06-23T02:21:40.976Z,3.00
2023-06-23T02:24:10.209Z,3.60
2023-06-23T02:26:41.214Z,3.70
2023-06-23T02:29:11.946Z,4.10
2023-06-23T02:31:41.697Z,4.10
2023-06-23T02:34:10.453Z,4.20
2023-06-23T02:36:48.190Z,3.60
2023-06-23T02:39:20.629Z,4.10
2023-06-23T02:41:55.459Z,4.00
2023-06-23T02:44:31.647Z,3.20
2023-06-23T02:47:00.913Z,3.70
2023-06-23T02:49:32.256Z,3.50
2023-06-23T02:52:03.952Z,3.80
2023-06-23T02:54:37.942Z,3.60
2023-06-23T02:57:08.859Z,3.30
2023-06-23T02:59:38.392Z,2.60
2023-06-23T03:02:09.636Z,3.20
2023-06-23T03:04:40.599Z,3.50
2023-06-23T03:07:11.900Z,3.20
2023-06-23T03:09:41.201Z,3.40
2023-06-23T03:12:11.123Z,3.00
2023-06-23T03:14:40.544Z,3.00
2023-06-23T03:17:23.559Z,3.10
2023-06-23T03:19:58.052Z,2.80
2023-06-23T03:22:38.919Z,2.80
2023-06-23T03:25:14.757Z,3.20
2023-06-23T03:27:44.929Z,2.90
2023-06-23T03:30:35.771Z,3.40
2023-06-23T03:33:13.600Z,3.30
2023-06-23T03:35:46.514Z,2.80
2023-06-23T03:38:23.293Z,3.20
2023-06-23T03:40:59.894Z,2.90
2023-06-23T03:43:32.018Z,3.10
2023-06-23T03:46:05.724Z,3.10
2023-06-23T03:48:38.409Z,2.70
2023-06-23T03:51:07.795Z,3.00
2023-06-23T03:53:37.122Z,3.00
2023-06-23T03:56:07.242Z,3.30
2023-06-23T03:58:36.319Z,3.50
2023-06-23T04:01:08.480Z,3.10
2023-06-23T04:03:38.866Z,3.00
2023-06-23T04:06:09.226Z,3.60
2023-06-23T04:08:39.561Z,3.40
2023-06-23T04:11:10.398Z,3.70
2023-06-23T04:13:39.877Z,3.00
2023-06-23T04:16:08.880Z,2.90
2023-06-23T04:18:39.201Z,3.10
2023-06-23T04:21:09.755Z,3.30
2023-06-23T04:23:39.973Z,3.10
2023-06-23T04:26:10.994Z,3.40
2023-06-23T04:28:43.595Z,3.60
2023-06-23T04:31:13.760Z,3.40
2023-06-23T04:33:43.844Z,3.50
2023-06-23T04:36:17.150Z,3.80
2023-06-23T04:38:53.589Z,3.80
2023-06-23T04:41:27.325Z,3.30
2023-06-23T04:43:58.142Z,3.50
2023-06-23T04:46:33.665Z,4.30
2023-06-23T04:49:12.191Z,4.10
2023-06-23T04:51:50.023Z,3.90
2023-06-23T04:54:23.688Z,3.70
2023-06-23T04:56:53.703Z,4.20
2023-06-23T04:59:23.846Z,4.30
2023-06-23T05:01:52.740Z,4.30
2023-06-23T05:04:22.322Z,4.20
2023-06-23T05:06:52.258Z,4.60
2023-06-23T05:09:21.539Z,4.50
2023-06-23T05:11:52.085Z,4.40
2023-06-23T05:14:21.677Z,4.00
2023-06-23T05:16:50.582Z,4.40
2023-06-23T05:19:20.691Z,3.70
2023-06-23T05:21:50.290Z,4.10
2023-06-23T05:24:20.656Z,4.00
2023-06-23T05:26:50.281Z,4.20
2023-06-23T05:29:19.851Z,4.40
2023-06-23T05:31:50.386Z,4.40
2023-06-23T05:34:19.566Z,4.10
2023-06-23T05:36:50.144Z,4.50
2023-06-23T05:39:21.300Z,5.00
2023-06-23T05:41:50.835Z,4.30
2023-06-23T05:44:19.743Z,4.20
2023-06-23T05:46:51.032Z,4.00
2023-06-23T05:49:23.172Z,4.30
2023-06-23T05:51:59.426Z,4.50
2023-06-23T05:54:31.608Z,4.10
2023-06-23T05:57:04.582Z,4.30
2023-06-23T05:59:41.787Z,4.00
2023-06-23T06:02:17.155Z,4.20
2023-06-23T06:04:52.704Z,3.90
2023-06-23T06:07:22.149Z,3.80
2023-06-23T06:09:52.780Z,3.90
2023-06-23T06:12:21.971Z,4.60
2023-06-23T06:14:51.276Z,4.80
2023-06-23T06:17:20.707Z,5.20
2023-06-23T06:19:50.155Z,4.90
2023-06-23T06:22:20.529Z,4.90
2023-06-23T06:24:50.350Z,4.80
2023-06-23T06:27:19.946Z,4.90
2023-06-23T06:29:49.938Z,5.10
2023-06-23T06:32:19.398Z,4.90
2023-06-23T06:34:49.371Z,4.30
2023-06-23T06:37:18.560Z,5.00
2023-06-23T06:39:48.543Z,4.90
2023-06-23T06:42:17.383Z,4.90
2023-06-23T06:44:47.513Z,4.80
2023-06-23T06:47:17.945Z,5.20
2023-06-23T06:49:47.647Z,4.90
2023-06-23T06:52:16.946Z,4.90
2023-06-23T06:54:46.846Z,5.40
2023-06-23T06:57:15.418Z,4.80
2023-06-23T06:59:44.630Z,4.20
2023-06-23T07:02:13.991Z,4.20
2023-06-23T07:04:43.546Z,4.00
2023-06-23T07:07:16.265Z,3.80
2023-06-23T07:09:45.045Z,4.00
2023-06-23T07:12:13.885Z,3.80
2023-06-23T07:14:43.101Z,3.90
2023-06-23T07:17:11.867Z,3.60
2023-06-23T07:19:42.101Z,4.60
2023-06-23T07:22:11.011Z,4.20
2023-06-23T07:24:39.773Z,4.70
2023-06-23T07:27:09.993Z,4.30
2023-06-23T07:29:38.880Z,4.00
2023-06-23T07:32:09.132Z,4.40
2023-06-23T07:34:39.085Z,4.30
2023-06-23T07:37:10.523Z,4.00
2023-06-23T07:39:39.460Z,5.10
2023-06-23T07:42:08.577Z,5.10
2023-06-23T07:44:40.750Z,5.10
2023-06-23T07:47:10.661Z,5.00
2023-06-23T07:49:41.523Z,4.90
2023-06-23T07:52:12.343Z,5.40
2023-06-23T07:54:42.017Z,7.00
2023-06-23T07:57:11.628Z,7.70
2023-06-23T07:59:40.412Z,7.40
2023-06-23T08:02:11.789Z,7.50
2023-06-23T08:04:43.918Z,7.60
2023-06-23T08:07:12.940Z,8.10
2023-06-23T08:09:41.727Z,8.60
2023-06-23T08:12:10.884Z,10.40
2023-06-23T08:14:39.707Z,9.50
2023-06-23T08:17:08.599Z,9.00
2023-06-23T08:19:37.583Z,10.50
2023-06-23T08:26:08.271Z,9.00
2023-06-23T08:28:37.875Z,9.90
2023-06-23T08:31:32.583Z,10.30
2023-06-23T08:34:02.160Z,10.00
2023-06-23T08:36:31.168Z,9.80
2023-06-23T08:39:00.772Z,9.90
2023-06-23T08:41:31.181Z,10.50
2023-06-23T08:44:02.241Z,11.40
2023-06-23T08:46:47.692Z,11.20
2023-06-23T08:49:25.090Z,10.40
2023-06-23T08:51:57.067Z,8.70
2023-06-23T08:54:26.667Z,8.70
2023-06-23T08:56:55.762Z,9.20
2023-06-23T08:59:24.955Z,9.90
2023-06-23T09:01:54.202Z,9.70
2023-06-23T09:04:24.152Z,10.20
2023-06-23T09:06:53.681Z,10.60
2023-06-23T09:09:23.320Z,9.50
2023-06-23T09:11:52.896Z,10.50
2023-06-23T09:14:26.705Z,11.00
2023-06-23T09:16:57.665Z,10.40
2023-06-23T09:19:26.952Z,9.90
2023-06-23T09:21:56.562Z,10.70
2023-06-23T09:24:25.957Z,11.20
2023-06-23T09:26:58.935Z,10.80
2023-06-23T09:29:28.650Z,9.40
2023-06-23T09:31:58.467Z,9.40
2023-06-23T09:34:33.066Z,9.40
2023-06-23T09:37:14.586Z,7.90
2023-06-23T09:39:49.897Z,8.20
2023-06-23T09:42:20.048Z,8.20
2023-06-23T09:44:50.537Z,7.90
2023-06-23T09:47:20.397Z,8.30
2023-06-23T09:49:51.448Z,8.20
2023-06-23T09:52:25.896Z,8.40
2023-06-23T09:54:57.424Z,7.80
2023-06-23T09:57:27.013Z,7.80
2023-06-23T09:59:57.236Z,6.00
2023-06-23T10:02:32.107Z,6.40
2023-06-23T10:05:06.146Z,6.40
2023-06-23T10:07:36.306Z,6.00
2023-06-23T10:12:43.686Z,6.30
2023-06-23T10:15:13.396Z,5.30
2023-06-23T10:17:44.332Z,5.70
2023-06-23T10:20:14.162Z,5.80
2023-06-23T10:22:43.853Z,4.40
2023-06-23T10:25:13.587Z,5.30
2023-06-23T10:27:43.694Z,5.20
2023-06-23T10:30:14.182Z,5.40
2023-06-23T10:32:48.276Z,4.20
2023-06-23T10:35:24.821Z,4.20
2023-06-23T10:38:05.084Z,4.10
2023-06-23T10:40:40.813Z,5.20
2023-06-23T10:43:12.826Z,6.00
2023-06-23T10:45:43.327Z,4.00
2023-06-23T10:48:13.897Z,4.30
2023-06-23T10:50:43.350Z,3.80
2023-06-23T10:53:30.843Z,3.60
2023-06-23T10:56:08.262Z,3.00
2023-06-23T10:58:52.759Z,2.60
2023-06-23T11:01:22.247Z,2.50
2023-06-23T11:03:59.871Z,2.80
2023-06-23T11:06:36.500Z,3.40
2023-06-23T11:09:30.387Z,3.20
2023-06-23T11:12:00.809Z,3.10
2023-06-23T11:14:30.132Z,2.70
2023-06-23T11:17:00.229Z,2.90
2023-06-23T11:19:30.846Z,3.50
2023-06-23T11:22:11.127Z,2.80
2023-06-23T11:24:53.618Z,3.50
2023-06-23T11:27:22.601Z,4.20
2023-06-23T11:30:18.506Z,4.60
2023-06-23T11:32:50.246Z,3.80
2023-06-23T11:35:19.572Z,3.60
2023-06-23T11:37:48.975Z,3.60
2023-06-23T11:40:20.121Z,2.80
2023-06-23T11:42:49.437Z,3.20
2023-06-23T11:45:19.450Z,3.60
2023-06-23T11:47:52.205Z,3.30
2023-06-23T11:50:21.126Z,2.80
2023-06-23T11:52:50.311Z,3.00
2023-06-23T11:55:19.322Z,3.00
2023-06-23T11:57:49.255Z,3.20
2023-06-23T12:00:18.998Z,2.90
2023-06-23T12:02:51.007Z,2.80
2023-06-23T12:05:19.918Z,2.70
2023-06-23T12:07:50.003Z,2.90
2023-06-23T12:10:19.419Z,3.20
2023-06-23T12:12:50.566Z,3.40
2023-06-23T12:15:24.564Z,3.70
2023-06-23T12:17:58.647Z,3.30
2023-06-23T12:20:30.570Z,3.70
2023-06-23T12:23:13.545Z,3.10
2023-06-23T12:25:47.460Z,3.30
2023-06-23T12:28:19.499Z,3.30
2023-06-23T12:30:52.385Z,3.50
2023-06-23T12:33:26.627Z,4.00
2023-06-23T12:36:06.990Z,3.60
2023-06-23T12:38:37.937Z,3.10
2023-06-23T12:41:21.407Z,3.50
2023-06-23T12:43:50.564Z,3.70
2023-06-23T12:46:24.073Z,3.20
2023-06-23T12:48:54.848Z,4.20
2023-06-23T12:51:37.415Z,4.00
2023-06-23T12:54:06.912Z,4.00
2023-06-23T12:56:36.310Z,3.90
2023-06-23T12:59:05.513Z,3.80
2023-06-23T13:01:35.058Z,4.20
2023-06-23T13:04:04.626Z,3.40
2023-06-23T13:06:37.920Z,4.20
2023-06-23T13:09:06.805Z,4.50
2023-06-23T13:11:37.162Z,4.70
2023-06-23T13:14:06.463Z,4.40
2023-06-23T13:16:36.034Z,4.90
2023-06-23T13:19:05.937Z,4.50
2023-06-23T13:21:36.590Z,4.70
2023-06-23T13:24:06.093Z,4.60
2023-06-23T13:26:35.194Z,4.50
2023-06-23T13:29:04.176Z,4.70
2023-06-23T13:31:33.970Z,4.60
2023-06-23T13:34:02.868Z,4.70
2023-06-23T13:36:32.179Z,4.60
2023-06-23T13:39:01.764Z,5.10
2023-06-23T13:41:30.790Z,5.40
2023-06-23T13:43:59.985Z,4.60
2023-06-23T13:46:28.757Z,4.70
2023-06-23T13:48:58.075Z,5.10
2023-06-23T13:51:27.386Z,5.90
2023-06-23T13:53:57.384Z,5.20
2023-06-23T13:56:26.684Z,5.70
2023-06-23T13:58:55.997Z,5.30
2023-06-23T14:01:25.105Z,5.20
2023-06-23T14:03:54.088Z,5.60
2023-06-23T14:06:26.963Z,4.90
2023-06-23T14:08:59.527Z,5.70
2023-06-23T14:11:29.359Z,5.10
2023-06-23T14:13:58.671Z,5.50
2023-06-23T14:16:27.965Z,5.30
2023-06-23T14:18:57.657Z,6.10
2023-06-23T14:21:26.957Z,6.00
2023-06-23T14:23:57.053Z,5.80
2023-06-23T14:26:26.073Z,5.20
2023-06-23T14:28:55.182Z,5.60
2023-06-23T14:31:25.432Z,6.10
2023-06-23T14:33:54.799Z,6.30
2023-06-23T14:36:26.464Z,6.20
2023-06-23T14:38:59.108Z,5.80
2023-06-23T14:41:31.926Z,6.20
2023-06-23T14:44:05.275Z,6.50
2023-06-23T14:46:36.341Z,6.40
2023-06-23T14:49:05.129Z,6.70
2023-06-23T14:51:34.423Z,5.60
2023-06-23T14:54:03.783Z,5.10
2023-06-23T14:56:32.830Z,5.00
2023-06-23T14:59:02.140Z,4.90
2023-06-23T15:01:31.296Z,3.30
2023-06-23T15:04:05.425Z,3.00
2023-06-23T15:06:39.508Z,3.00
2023-06-23T15:09:18.618Z,3.00
2023-06-23T15:11:53.620Z,2.40
2023-06-23T15:14:22.807Z,3.30
2023-06-23T15:16:52.559Z,3.00
2023-06-23T15:19:23.053Z,3.50
2023-06-23T15:21:53.785Z,3.50
2023-06-23T15:24:22.781Z,3.10
2023-06-23T15:26:51.684Z,2.90
2023-06-23T15:29:21.932Z,2.90
2023-06-23T15:31:51.784Z,2.80
2023-06-23T15:34:21.711Z,3.30
2023-06-23T15:36:51.323Z,2.80
2023-06-23T15:39:20.926Z,3.20
2023-06-23T15:41:51.571Z,2.80
2023-06-23T15:44:21.519Z,3.20
2023-06-23T15:46:50.970Z,2.90
2023-06-23T15:49:21.098Z,3.00
2023-06-23T15:51:49.892Z,2.60
2023-06-23T15:54:20.209Z,3.10
2023-06-23T15:56:50.200Z,3.00
2023-06-23T15:59:19.433Z,2.80
2023-06-23T16:01:49.339Z,2.80
2023-06-23T16:04:19.467Z,3.20
2023-06-23T16:06:49.316Z,3.50
2023-06-23T16:09:18.796Z,3.00
2023-06-23T16:11:48.403Z,3.20
2023-06-23T16:14:17.419Z,3.10
2023-06-23T16:16:46.564Z,2.70
2023-06-23T16:19:15.843Z,2.90
2023-06-23T16:21:49.397Z,3.20
2023-06-23T16:24:18.935Z,3.10
2023-06-23T16:26:48.286Z,3.10
2023-06-23T16:29:18.719Z,3.40
2023-06-23T16:31:48.180Z,3.00
2023-06-23T16:34:17.320Z,3.20
2023-06-23T16:36:46.976Z,3.50
2023-06-23T16:39:16.637Z,3.10
2023-06-23T16:41:50.346Z,3.30
2023-06-23T16:44:19.402Z,3.90
2023-06-23T16:46:50.746Z,3.70
2023-06-23T16:49:19.979Z,3.20
2023-06-23T16:51:48.801Z,3.40
2023-06-23T16:54:18.281Z,4.10
2023-06-23T16:56:47.685Z,3.50
2023-06-23T16:59:17.379Z,3.90
2023-06-23T17:01:46.385Z,3.60
2023-06-23T17:04:16.075Z,3.80
2023-06-23T17:06:45.594Z,4.00
2023-06-23T17:09:15.145Z,3.20
2023-06-23T17:11:44.617Z,4.40
2023-06-23T17:14:14.346Z,3.80
2023-06-23T17:16:43.402Z,3.90
2023-06-23T17:19:12.988Z,4.20
2023-06-23T17:21:42.103Z,4.00
2023-06-23T17:24:11.987Z,4.60
2023-06-23T17:26:41.153Z,4.30
2023-06-23T17:29:10.625Z,4.00
2023-06-23T17:31:42.452Z,4.10
2023-06-23T17:34:12.099Z,5.00
2023-06-23T17:36:41.394Z,5.10
2023-06-23T17:39:10.404Z,5.60
2023-06-23T17:41:39.632Z,4.40
2023-06-23T17:44:09.966Z,4.70
2023-06-23T17:46:39.774Z,4.40
2023-06-23T17:49:10.169Z,4.80
2023-06-23T17:51:39.553Z,4.30
2023-06-23T17:54:09.185Z,4.30
2023-06-23T17:56:38.676Z,4.10
2023-06-23T17:59:11.372Z,5.20
2023-06-23T18:01:40.605Z,4.50
2023-06-23T18:04:09.441Z,5.00
2023-06-23T18:06:40.103Z,4.60
2023-06-23T18:09:09.265Z,4.00
2023-06-23T18:11:38.803Z,4.50
2023-06-23T18:14:07.768Z,4.60
2023-06-23T18:16:36.867Z,4.80
2023-06-23T18:19:05.893Z,5.30
2023-06-23T18:21:35.057Z,5.10
2023-06-23T18:24:04.569Z,4.40
2023-06-23T18:26:35.683Z,4.90
2023-06-23T18:29:06.143Z,4.80
2023-06-23T18:31:35.989Z,4.60
2023-06-23T18:34:05.240Z,4.50
2023-06-23T18:36:34.645Z,4.10
2023-06-23T18:39:04.338Z,3.70
2023-06-23T18:41:33.864Z,3.50
2023-06-23T18:44:03.863Z,3.40
2023-06-23T18:46:34.008Z,2.60
2023-06-23T18:49:04.322Z,2.70
2023-06-23T18:51:39.357Z,2.80
2023-06-23T18:54:09.989Z,2.60
2023-06-23T18:56:39.482Z,2.30
2023-06-23T18:59:09.345Z,2.30
2023-06-23T19:01:39.223Z,2.30
2023-06-23T19:04:08.778Z,2.60
2023-06-23T19:06:38.269Z,2.70
2023-06-23T19:09:07.586Z,2.80
2023-06-23T19:11:37.435Z,2.40
2023-06-23T19:14:06.354Z,2.10
2023-06-23T19:16:35.539Z,1.90
2023-06-23T19:19:05.220Z,2.40
2023-06-23T19:21:34.536Z,2.20
2023-06-23T19:24:03.708Z,2.20
2023-06-23T19:26:32.641Z,2.10
2023-06-23T19:29:01.732Z,1.90
2023-06-23T19:31:30.758Z,2.20
2023-06-23T19:33:59.737Z,2.30
2023-06-23T19:36:29.099Z,2.10
2023-06-23T19:38:58.109Z,2.10
2023-06-23T19:41:27.201Z,1.90
2023-06-23T19:43:57.019Z,2.20
2023-06-23T19:46:26.103Z,1.90
2023-06-23T19:48:56.690Z,2.20
2023-06-23T19:51:25.622Z,1.80
2023-06-23T19:53:54.514Z,2.00
2023-06-23T19:56:23.526Z,2.20
2023-06-23T19:58:52.597Z,1.80
2023-06-23T20:01:22.702Z,1.60
2023-06-23T20:03:51.818Z,2.10
2023-06-23T20:06:21.940Z,1.90
2023-06-23T20:08:51.231Z,1.80
2023-06-23T20:11:20.526Z,1.70
2023-06-23T20:13:49.521Z,1.80
2023-06-23T20:16:18.918Z,1.90
2023-06-23T20:18:48.052Z,1.70
2023-06-23T20:21:17.012Z,2.10
2023-06-23T20:23:46.158Z,1.60
2023-06-23T20:26:15.320Z,1.90
2023-06-23T20:28:44.618Z,2.30
2023-06-23T20:31:13.843Z,2.10
2023-06-23T20:33:43.016Z,2.60
2023-06-23T20:36:12.306Z,1.90
2023-06-23T20:38:49.532Z,2.20
2023-06-23T20:41:19.418Z,2.00
2023-06-23T20:43:48.422Z,2.00
2023-06-23T20:46:17.499Z,2.20
2023-06-23T20:48:46.808Z,2.10
2023-06-23T20:51:16.303Z,2.00
2023-06-23T20:53:45.600Z,2.40
2023-06-23T20:56:14.803Z,2.50
2023-06-23T20:58:44.047Z,2.70
2023-06-23T21:01:13.495Z,2.60
2023-06-23T21:03:42.452Z,2.70
2023-06-23T21:06:11.302Z,3.30
2023-06-23T21:08:40.435Z,3.40
2023-06-23T21:11:09.685Z,3.00
2023-06-23T21:13:38.572Z,3.00
2023-06-23T21:16:07.888Z,3.00
2023-06-23T21:18:36.684Z,3.20
2023-06-23T21:21:05.543Z,3.60
2023-06-23T21:23:34.346Z,3.30
2023-06-23T21:26:03.566Z,3.40
2023-06-23T21:28:39.140Z,3.90
2023-06-23T21:31:08.318Z,3.60
2023-06-23T21:33:37.482Z,3.50
2023-06-23T21:36:06.491Z,3.10
2023-06-23T21:38:35.782Z,3.70
2023-06-23T21:41:04.765Z,3.00
2023-06-23T21:43:33.897Z,3.50
2023-06-23T21:46:02.800Z,3.20
2023-06-23T21:48:31.763Z,3.40
2023-06-23T21:51:00.942Z,3.50
2023-06-23T21:53:30.645Z,3.60
2023-06-23T21:56:00.584Z,3.80
2023-06-23T21:58:29.353Z,3.60
2023-06-23T22:00:58.380Z,4.30
2023-06-23T22:03:27.222Z,3.40
2023-06-23T22:05:58.069Z,3.30
2023-06-23T22:08:26.768Z,3.40
2023-06-23T22:10:56.468Z,4.30
2023-06-23T22:13:27.424Z,3.60
2023-06-23T22:15:59.685Z,2.90
2023-06-23T22:18:47.720Z,3.50
2023-06-23T22:21:21.020Z,3.40
2023-06-23T22:23:49.913Z,3.20
2023-06-23T22:26:18.700Z,3.30
2023-06-23T22:28:47.271Z,3.50
2023-06-23T22:31:16.120Z,3.20
2023-06-23T22:33:44.848Z,3.40
2023-06-23T22:36:14.353Z,3.80
2023-06-23T22:38:44.184Z,3.90
2023-06-23T22:41:12.860Z,3.90
2023-06-23T22:43:42.061Z,3.50
2023-06-23T22:46:10.829Z,4.00
2023-06-23T22:48:39.738Z,4.10
2023-06-23T22:51:08.623Z,3.80
2023-06-23T22:53:39.037Z,4.40
2023-06-23T22:56:10.001Z,4.50
2023-06-23T22:58:40.213Z,4.90
2023-06-23T23:01:08.998Z,4.10
2023-06-23T23:03:37.853Z,4.70
2023-06-23T23:06:06.664Z,4.60
2023-06-23T23:08:35.578Z,5.50
2023-06-23T23:11:04.455Z,4.30
2023-06-23T23:13:33.542Z,4.30
2023-06-23T23:16:02.640Z,4.40
2023-06-23T23:18:32.365Z,5.10
2023-06-23T23:21:01.446Z,4.50
2023-06-23T23:23:35.361Z,4.70
2023-06-23T23:26:04.664Z,5.60
2023-06-23T23:28:33.136Z,5.20
2023-06-23T23:31:02.153Z,5.70
2023-06-23T23:33:31.045Z,6.00
2023-06-23T23:36:02.715Z,6.80
2023-06-23T23:38:31.482Z,6.50
2023-06-23T23:41:02.225Z,7.40
2023-06-23T23:43:30.807Z,7.30
2023-06-23T23:45:59.924Z,7.80
2023-06-23T23:48:28.559Z,6.90
2023-06-23T23:50:57.369Z,8.70
2023-06-23T23:53:26.052Z,10.80
2023-06-23T23:55:54.943Z,13.20
2023-06-23T23:58:23.829Z,12.60
